Time;durP1;ratioP1;P1;durP2;ratioP2;P2;SDS_P1;SDS_P2;PMS_P1;PMS_P2;Temp;Humidity;BMP_temperature;BMP_pressure;BME280_temperature;BME280_humidity;BME280_pressure;Samples;Min_cycle;Max_cycle;Signal;HPM_P1;HPM_P2
2023/01/15 16:02:14;;;;;;;2.10;0.50;;;4.10;99.90;;;;;;5094624;27;21179;-78
2023/01/15 16:04:45;;;;;;;0.70;0.70;;;4.00;99.90;;;;;;5062290;28;20583;-77
2023/01/15 16:07:13;;;;;;;1.03;0.80;;;4.10;99.90;;;;;;5068443;28;20908;-76
2023/01/15 16:09:43;;;;;;;0.67;0.50;;;4.00;99.90;;;;;;5069953;28;20472;-77
2023/01/15 16:12:14;;;;;;;0.83;0.67;;;3.90;99.90;;;;;;5069972;28;20456;-81
2023/01/15 16:14:41;;;;;;;1.00;0.60;;;;;;;;;;5069693;28;20458;-78
2023/01/15 16:17:13;;;;;;;0.40;0.37;;;3.80;99.90;;;;;;5067527;28;20454;-77
2023/01/15 16:19:40;;;;;;;0.80;0.60;;;;;;;;;;5069514;28;20553;-76
2023/01/15 16:22:07;;;;;;;0.77;0.43;;;;;;;;;;5068307;28;20460;-77
2023/01/15 16:24:35;;;;;;;2.20;0.63;;;;;;;;;;5058900;28;20467;-79
2023/01/15 16:27:06;;;;;;;1.17;1.00;;;3.80;99.90;;;;;;5049625;28;20447;-79
2023/01/15 16:29:34;;;;;;;1.67;1.27;;;3.80;99.90;;;;;;5049437;28;21318;-77
2023/01/15 16:32:02;;;;;;;0.50;0.40;;;;;;;;;;5049181;28;20447;-77
2023/01/15 16:34:32;;;;;;;0.60;0.57;;;3.80;99.90;;;;;;5049323;28;20486;-80
2023/01/15 16:37:00;;;;;;;1.10;0.60;;;;;;;;;;5048349;28;20465;-80
2023/01/15 16:39:30;;;;;;;3.53;0.70;;;3.80;99.90;;;;;;5049468;28;20455;-81
2023/01/15 16:42:00;;;;;;;5.07;0.87;;;3.80;99.90;;;;;;5048988;28;20494;-82
2023/01/15 16:44:41;;;;;;;1.90;0.60;;;3.70;99.90;;;;;;5049063;28;20447;-79
2023/01/15 16:47:21;;;;;;;1.47;0.87;;;3.70;99.90;;;;;;5049155;28;20447;-81
2023/01/15 16:49:49;;;;;;;2.53;1.10;;;3.80;99.90;;;;;;5049173;28;20801;-80
2023/01/15 16:52:35;;;;;;;2.43;0.67;;;3.80;99.90;;;;;;5047864;28;20451;-87
2023/01/15 16:55:02;;;;;;;2.50;0.87;;;;;;;;;;5049193;28;20459;-80
2023/01/15 16:57:33;;;;;;;0.70;0.50;;;3.70;99.90;;;;;;5048918;28;20465;-81
2023/01/15 17:00:07;;;;;;;0.50;0.50;;;3.70;99.90;;;;;;5048938;28;20483;-81
2023/01/15 17:02:41;;;;;;;0.50;0.37;;;3.70;99.90;;;;;;5049255;28;20455;-79
2023/01/15 17:05:23;;;;;;;0.87;0.60;;;3.70;99.90;;;;;;5049269;28;20438;-78
2023/01/15 17:07:52;;;;;;;1.90;0.73;;;3.70;99.90;;;;;;5047922;28;20442;-79
2023/01/15 17:10:21;;;;;;;0.50;0.50;;;;;;;;;;5049052;28;20950;-78
2023/01/15 17:12:50;;;;;;;2.00;0.50;;;;;;;;;;5039108;28;20447;-80
2023/01/15 17:15:36;;;;;;;0.70;0.37;;;3.60;99.90;;;;;;5035448;28;20447;-78
2023/01/15 17:18:19;;;;;;;2.97;0.60;;;;;;;;;;5029937;28;20475;-78
2023/01/15 17:20:47;;;;;;;1.10;0.50;;;3.60;99.90;;;;;;5035302;28;20495;-77
2023/01/15 17:23:14;;;;;;;2.20;1.27;;;;;;;;;;5033891;28;20448;-79
2023/01/15 17:25:41;;;;;;;1.23;0.90;;;;;;;;;;5035537;28;20470;-79
2023/01/15 17:28:11;;;;;;;2.00;0.90;;;3.70;99.90;;;;;;5035390;28;20916;-86
2023/01/15 17:30:38;;;;;;;0.90;0.70;;;;;;;;;;5035731;28;20465;-77
2023/01/15 17:33:07;;;;;;;1.17;0.70;;;3.60;99.90;;;;;;5035629;28;20462;-78
2023/01/15 17:35:36;;;;;;;1.13;0.87;;;3.50;99.90;;;;;;5035398;28;20439;-78
2023/01/15 17:38:06;;;;;;;2.80;2.40;;;3.60;99.90;;;;;;5034028;28;20458;-78
2023/01/15 17:40:33;;;;;;;0.40;0.30;;;;;;;;;;5035210;28;20479;-80
2023/01/15 17:43:01;;;;;;;3.50;2.20;;;;;;;;;;5032235;28;20757;-79
2023/01/15 17:45:30;;;;;;;0.77;0.63;;;3.50;99.90;;;;;;5034612;28;20530;-78
2023/01/15 17:47:57;;;;;;;0.90;0.83;;;;;;;;;;5034854;28;20443;-80
2023/01/15 17:50:24;;;;;;;1.63;1.00;;;;;;;;;;5034649;28;20448;-78
2023/01/15 17:52:51;;;;;;;2.50;0.67;;;;;;;;;;5033637;28;20469;-77
2023/01/15 18:06:26;;;;;;;0.70;0.47;;;;;;;;;;5033203;28;20845;-80
2023/01/15 18:08:57;;;;;;;1.10;0.50;;;3.40;99.90;;;;;;5034412;28;20782;-79
2023/01/15 18:11:25;;;;;;;1.60;0.87;;;;;;;;;;5034160;28;20452;-80
2023/01/15 18:13:54;;;;;;;2.17;1.20;;;;;;;;;;5033667;28;20452;-78
2023/01/15 18:16:21;;;;;;;0.60;0.47;;;;;;;;;;5034013;28;20509;-80
2023/01/15 18:18:49;;;;;;;0.40;0.33;;;;;;;;;;5034073;28;20467;-83
2023/01/15 18:21:16;;;;;;;0.50;0.40;;;;;;;;;;5032602;28;20565;-81
2023/01/15 18:23:43;;;;;;;1.33;1.23;;;;;;;;;;5033125;28;20828;-78
2023/01/15 18:26:10;;;;;;;0.83;0.60;;;;;;;;;;5034236;28;20958;-80
2023/01/15 18:28:39;;;;;;;1.03;0.90;;;3.40;99.90;;;;;;5033722;28;20448;-82
2023/01/15 18:31:07;;;;;;;0.50;0.50;;;;;;;;;;5033968;28;20478;-78
2023/01/15 18:33:34;;;;;;;0.50;0.37;;;;;;;;;;5033952;28;20447;-80
2023/01/15 18:36:06;;;;;;;0.80;0.50;;;3.50;99.90;;;;;;5033117;28;20444;-78
2023/01/15 18:38:35;;;;;;;0.93;0.67;;;3.70;99.90;;;;;;5034084;28;20934;-82
2023/01/15 18:41:09;;;;;;;0.80;0.67;;;3.40;99.90;;;;;;5033973;28;20541;-79
2023/01/15 18:49:09;;;;;;;0.57;0.53;;;;;;;;;;5033052;28;20446;-79
2023/01/15 18:51:36;;;;;;;3.50;0.70;;;;;;;;;;5032362;28;20450;-79
2023/01/15 18:54:04;;;;;;;1.00;0.50;;;;;;;;;;5033522;28;20443;-78
2023/01/15 18:56:38;;;;;;;1.33;1.00;;;;;;;;;;5033408;28;20534;-77
2023/01/15 18:59:06;;;;;;;2.50;1.53;;;;;;;;;;5033736;28;20469;-83
2023/01/15 19:01:35;;;;;;;2.40;0.70;;;3.40;99.90;;;;;;5033356;28;20491;-79
2023/01/15 19:04:04;;;;;;;1.30;0.67;;;;;;;;;;5033556;28;20447;-87
2023/01/15 19:06:32;;;;;;;2.10;0.60;;;;;;;;;;5032384;28;20443;-83
2023/01/15 19:08:59;;;;;;;3.93;2.20;;;;;;;;;;5032405;28;20509;-79
2023/01/15 19:11:27;;;;;;;0.67;0.50;;;;;;;;;;5033652;28;20454;-83
2023/01/15 19:19:26;;;;;;;0.40;0.40;;;;;;;;;;5033736;28;20446;-82
2023/01/15 19:24:34;;;;;;;4.27;1.43;;;;;;;;;;5033493;28;20435;-83
2023/01/15 19:27:01;;;;;;;1.07;0.40;;;;;;;;;;5033670;28;20452;-80
2023/01/15 19:29:28;;;;;;;0.47;0.33;;;;;;;;;;5033209;28;20450;-79
2023/01/15 19:31:57;;;;;;;1.03;0.50;;;;;;;;;;5033458;28;20447;-80
2023/01/15 19:34:24;;;;;;;5.77;2.60;;;;;;;;;;5033110;28;20439;-78
2023/01/15 19:36:51;;;;;;;2.57;1.10;;;;;;;;;;5032058;28;20451;-80
2023/01/15 19:39:18;;;;;;;1.33;0.80;;;;;;;;;;5033225;28;20990;-77
2023/01/15 19:50:20;;;;;;;3.63;1.60;;;3.10;99.90;;;;;;5033152;28;20985;-81
2023/01/15 19:52:47;;;;;;;0.70;0.53;;;;;;;;;;5031909;28;20463;-84
2023/01/15 19:55:16;;;;;;;2.50;1.50;;;;;;;;;;5032443;28;20447;-78
2023/01/15 19:57:45;;;;;;;0.60;0.60;;;3.00;99.90;;;;;;5032949;28;20458;-78
2023/01/15 20:00:14;;;;;;;3.97;3.17;;;2.90;99.90;;;;;;5032565;28;20468;-82
2023/01/15 20:02:43;;;;;;;0.57;0.53;;;3.00;99.90;;;;;;5027859;28;20491;-81
2023/01/15 20:05:10;;;;;;;2.17;1.17;;;2.90;99.90;;;;;;5032909;28;20452;-78
2023/01/15 20:07:38;;;;;;;1.40;1.10;;;;;;;;;;5031652;28;20935;-83
2023/01/15 20:10:06;;;;;;;0.87;0.67;;;3.00;99.90;;;;;;5029873;28;20456;-83
2023/01/15 20:15:18;;;;;;;3.87;2.50;;;;;;;;;;5032437;28;20471;-80
2023/01/15 20:17:48;;;;;;;5.97;2.40;;;;;;;;;;5032700;28;20471;-83
2023/01/15 20:20:15;;;;;;;0.57;0.57;;;;;;;;;;5032608;28;20452;-79
2023/01/15 20:22:42;;;;;;;3.37;1.90;;;;;;;;;;5031451;28;20495;-78
2023/01/15 20:25:09;;;;;;;2.27;1.23;;;;;;;;;;5032591;28;20457;-83
2023/01/15 20:27:38;;;;;;;13.07;3.73;;;2.70;99.90;;;;;;5032167;28;20447;-78
2023/01/15 20:30:08;;;;;;;1.93;1.00;;;2.70;99.90;;;;;;5032677;28;20458;-80
2023/01/15 20:32:35;;;;;;;2.67;1.00;;;;;;;;;;5032631;28;21030;-79
2023/01/15 20:35:03;;;;;;;1.00;0.63;;;2.80;99.90;;;;;;5032525;28;20440;-78
2023/01/15 20:37:30;;;;;;;1.53;1.10;;;;;;;;;;5031444;28;20557;-78
2023/01/15 20:39:57;;;;;;;1.60;0.73;;;;;;;;;;5032569;28;20447;-78
2023/01/15 20:45:10;;;;;;;6.20;1.70;;;;;;;;;;5032465;28;20450;-80
2023/01/15 20:50:26;;;;;;;5.90;1.47;;;2.60;99.90;;;;;;5036338;28;20439;-77
2023/01/15 20:52:53;;;;;;;0.40;0.30;;;;;;;;;;5035448;28;20555;-77
2023/01/15 20:55:21;;;;;;;0.40;0.30;;;2.60;99.90;;;;;;5036185;28;20483;-83
2023/01/15 20:57:49;;;;;;;1.73;1.27;;;;;;;;;;5035762;28;20502;-85
2023/01/15 21:00:19;;;;;;;5.13;2.17;;;2.50;99.90;;;;;;5036498;28;20494;-82
2023/01/15 21:02:47;;;;;;;2.10;1.70;;;;;;;;;;5035657;28;20512;-82
2023/01/15 21:05:14;;;;;;;1.53;1.40;;;;;;;;;;5035278;28;20493;-80
2023/01/15 21:07:42;;;;;;;0.83;0.70;;;2.40;99.90;;;;;;5034776;28;20463;-85
2023/01/15 21:10:12;;;;;;;2.80;1.30;;;2.40;99.90;;;;;;5035953;28;20451;-80
2023/01/15 21:12:39;;;;;;;1.13;1.00;;;;;;;;;;5035320;28;20451;-79
2023/01/15 21:15:06;;;;;;;0.80;0.80;;;;;;;;;;5035772;28;20458;-78
2023/01/15 21:17:34;;;;;;;2.17;1.47;;;;;;;;;;5035642;28;20466;-80
2023/01/15 21:20:01;;;;;;;2.00;0.60;;;;;;;;;;5035677;28;20459;-80
2023/01/15 21:22:29;;;;;;;2.40;1.20;;;2.40;99.90;;;;;;5034403;28;21017;-84
2023/01/15 21:24:57;;;;;;;2.43;1.60;;;;;;;;;;5035561;28;20863;-85
2023/01/15 21:27:24;;;;;;;1.30;0.90;;;;;;;;;;5034971;28;20872;-81
2023/01/15 21:29:52;;;;;;;1.23;0.93;;;;;;;;;;5036625;28;20586;-81
2023/01/15 21:32:19;;;;;;;0.93;0.80;;;;;;;;;;5035643;28;20456;-81
2023/01/15 21:34:46;;;;;;;0.80;0.67;;;;;;;;;;5036766;28;20455;-80
2023/01/15 21:37:13;;;;;;;5.60;0.97;;;;;;;;;;5034346;28;20454;-83
2023/01/15 21:39:40;;;;;;;0.83;0.67;;;;;;;;;;5035432;28;20451;-80
2023/01/15 21:44:54;;;;;;;1.03;0.50;;;;;;;;;;5035494;28;20553;-83
2023/01/15 21:47:21;;;;;;;3.80;2.10;;;;;;;;;;5035379;28;20455;-80
2023/01/15 21:49:48;;;;;;;4.50;1.50;;;;;;;;;;5035943;28;20447;-87
2023/01/15 21:52:18;;;;;;;5.67;2.97;;;2.20;99.90;;;;;;5034715;28;20452;-84
2023/01/15 21:54:45;;;;;;;9.90;3.90;;;;;;;;;;5036463;28;20534;-81
2023/01/15 21:57:14;;;;;;;2.70;0.80;;;2.10;99.90;;;;;;5035660;28;20444;-86
2023/01/15 21:59:41;;;;;;;8.10;3.10;;;;;;;;;;5035231;28;20464;-84
2023/01/15 22:02:13;;;;;;;1.77;0.77;;;2.10;99.90;;;;;;5035739;28;20986;-87
2023/01/15 22:04:42;;;;;;;4.30;3.10;;;;;;;;;;5035712;28;20822;-82
2023/01/15 22:07:10;;;;;;;2.00;1.07;;;;;;;;;;5033588;28;20451;-82
2023/01/15 22:09:37;;;;;;;0.70;0.70;;;;;;;;;;5033536;28;20444;-80
2023/01/15 22:12:04;;;;;;;0.93;0.60;;;;;;;;;;5046365;28;20504;-80
2023/01/15 22:14:33;;;;;;;2.60;1.17;;;2.10;99.90;;;;;;5040855;28;20499;-87
2023/01/15 22:17:02;;;;;;;3.63;1.00;;;2.10;99.90;;;;;;5046263;28;20464;-80
2023/01/15 22:19:31;;;;;;;14.50;2.90;;;2.20;99.90;;;;;;5037828;28;20440;-83
2023/01/15 22:22:00;;;;;;;7.47;2.03;;;2.20;99.90;;;;;;5045179;28;20855;-85
2023/01/15 22:24:27;;;;;;;8.30;1.27;;;;;;;;;;5046384;28;20454;-82
2023/01/15 22:26:54;;;;;;;3.93;1.10;;;;;;;;;;5052074;28;20449;-79
2023/01/15 22:29:21;;;;;;;7.13;2.40;;;;;;;;;;5056170;28;20478;-81
2023/01/15 22:31:50;;;;;;;5.60;1.90;;;2.30;99.90;;;;;;5055807;28;20455;-83
2023/01/15 22:34:19;;;;;;;17.73;7.77;;;;;;;;;;5053920;28;20812;-82
2023/01/15 22:36:47;;;;;;;5.13;1.87;;;;;;;;;;5053040;28;21017;-84
2023/01/15 22:39:14;;;;;;;13.70;1.03;;;;;;;;;;5053984;28;20450;-80
2023/01/15 22:44:26;;;;;;;0.93;0.60;;;;;;;;;;5053976;28;20434;-79
2023/01/15 22:46:54;;;;;;;0.60;0.50;;;;;;;;;;5053939;28;20442;-79
2023/01/15 22:49:22;;;;;;;0.67;0.40;;;;;;;;;;5053881;28;20442;-81
2023/01/15 22:51:49;;;;;;;2.70;0.87;;;;;;;;;;5052666;28;20447;-78
2023/01/15 22:54:16;;;;;;;2.13;0.97;;;;;;;;;;5053668;28;20451;-79
2023/01/15 22:56:44;;;;;;;0.80;0.60;;;;;;;;;;5053754;28;20447;-80
2023/01/15 22:59:11;;;;;;;1.10;0.53;;;2.50;99.90;;;;;;5054722;28;20455;-78
2023/01/15 23:01:39;;;;;;;0.67;0.63;;;;;;;;;;5053762;28;20482;-84
2023/01/15 23:04:13;;;;;;;0.50;0.30;;;2.50;99.90;;;;;;5053810;28;20454;-81
2023/01/15 23:06:40;;;;;;;0.90;0.47;;;;;;;;;;5051551;28;20442;-78
2023/01/15 23:09:07;;;;;;;1.63;0.93;;;;;;;;;;5036401;28;20471;-81
2023/01/15 23:11:35;;;;;;;0.50;0.40;;;;;;;;;;5034045;28;20447;-83
2023/01/15 23:14:02;;;;;;;1.33;0.50;;;;;;;;;;5034066;28;20453;-88
2023/01/15 23:16:29;;;;;;;1.37;0.70;;;;;;;;;;5034076;28;20455;-77
2023/01/15 23:18:56;;;;;;;1.43;0.30;;;;;;;;;;5034158;28;20444;-79
2023/01/15 23:21:26;;;;;;;2.97;0.73;;;2.60;99.90;;;;;;5032510;28;20455;-79
2023/01/15 23:23:56;;;;;;;0.90;0.47;;;;;;;;;;5033466;28;21006;-79
2023/01/15 23:26:25;;;;;;;0.40;0.30;;;2.50;99.90;;;;;;5033486;28;20963;-83
2023/01/15 23:28:52;;;;;;;1.47;0.50;;;;;;;;;;5033330;28;20479;-79
2023/01/15 23:31:20;;;;;;;0.73;0.37;;;2.50;99.90;;;;;;5033379;28;20447;-80
2023/01/15 23:33:48;;;;;;;0.40;0.30;;;;;;;;;;5033660;28;20451;-88
2023/01/15 23:36:15;;;;;;;1.77;0.70;;;;;;;;;;5032454;28;20451;-88
2023/01/15 23:38:45;;;;;;;1.03;0.40;;;2.50;99.90;;;;;;5033593;28;20455;-80
2023/01/15 23:41:14;;;;;;;0.40;0.30;;;2.50;99.90;;;;;;5033436;28;20559;-80
2023/01/15 23:46:33;;;;;;;0.60;0.40;;;;;;;;;;5033456;28;20808;-82
2023/01/15 23:49:01;;;;;;;0.90;0.40;;;;;;;;;;5033497;28;20478;-79
2023/01/15 23:51:28;;;;;;;0.60;0.40;;;;;;;;;;5032418;28;20450;-79
2023/01/15 23:53:56;;;;;;;0.30;0.30;;;;;;;;;;5033058;28;20458;-78
2023/01/15 23:56:23;;;;;;;0.37;0.20;;;;;;;;;;5033010;28;20927;-81
2023/01/15 23:58:50;;;;;;;0.47;0.37;;;;;;;;;;5033149;28;20802;-87
